RAPTOR1 KLAS-KEDW
Flight info
| Callsign | RAPTOR1 |
|---|---|
| Flight time | 0h 34m |
| Altitude | 24000 |
| Route | RADYR2 HEC PMD |
| Aircraft | F22/M-SDGHITUY/LB1 |
Departure
| Time | 2026-05-06 21:21 |
|---|---|
| Airport | Harry Reid International Airport (KLAS) |
Arrival
| Time | 2026-05-06 21:55 |
|---|---|
| Airport | Edwards Air Force Base (KEDW) |
| Time | Latitude | Longitude | Altitude | Speed | Heading |
|---|---|---|---|---|---|
| 2026-05-06 21:03 | 36.08182 | -115.17062 | 2169 ft | 0 kts | 1° |
| 2026-05-06 21:14 | 36.08187 | -115.17057 | 2173 ft | 4 kts | 59° |
| 2026-05-06 21:14 | 36.08145 | -115.16993 | 2173 ft | 13 kts | 107° |
| 2026-05-06 21:14 | 36.08048 | -115.16982 | 2182 ft | 23 kts | 204° |
| 2026-05-06 21:14 | 36.07885 | -115.17075 | 2185 ft | 25 kts | 205° |
| 2026-05-06 21:15 | 36.07802 | -115.16986 | 2183 ft | 22 kts | 89° |
| 2026-05-06 21:15 | 36.07803 | -115.16799 | 2182 ft | 23 kts | 90° |
| 2026-05-06 21:15 | 36.07803 | -115.16567 | 2169 ft | 29 kts | 90° |
| 2026-05-06 21:15 | 36.07804 | -115.16312 | 2168 ft | 30 kts | 89° |
| 2026-05-06 21:16 | 36.07805 | -115.16078 | 2163 ft | 26 kts | 90° |
| 2026-05-06 21:16 | 36.07804 | -115.15859 | 2164 ft | 26 kts | 90° |
| 2026-05-06 21:16 | 36.07804 | -115.15626 | 2158 ft | 28 kts | 90° |
| 2026-05-06 21:16 | 36.07803 | -115.15380 | 2157 ft | 29 kts | 90° |
| 2026-05-06 21:17 | 36.07804 | -115.15128 | 2145 ft | 30 kts | 90° |
| 2026-05-06 21:17 | 36.07795 | -115.14967 | 2140 ft | 24 kts | 95° |
| 2026-05-06 21:17 | 36.07775 | -115.14673 | 2126 ft | 28 kts | 95° |
| 2026-05-06 21:17 | 36.07759 | -115.14430 | 2116 ft | 29 kts | 95° |
| 2026-05-06 21:18 | 36.07753 | -115.14274 | 2109 ft | 25 kts | 90° |
| 2026-05-06 21:18 | 36.07754 | -115.14044 | 2101 ft | 29 kts | 90° |
| 2026-05-06 21:18 | 36.07754 | -115.13792 | 2093 ft | 29 kts | 90° |
| 2026-05-06 21:18 | 36.07754 | -115.13559 | 2084 ft | 26 kts | 90° |
| 2026-05-06 21:19 | 36.07755 | -115.13322 | 2074 ft | 30 kts | 90° |
| 2026-05-06 21:19 | 36.07754 | -115.13048 | 2059 ft | 27 kts | 91° |
| 2026-05-06 21:19 | 36.07754 | -115.12879 | 2052 ft | 22 kts | 90° |
| 2026-05-06 21:19 | 36.07754 | -115.12664 | 2040 ft | 28 kts | 91° |
| 2026-05-06 21:20 | 36.07733 | -115.12582 | 2045 ft | 0 kts | 192° |
| 2026-05-06 21:20 | 36.07642 | -115.12618 | 2043 ft | 26 kts | 228° |
| 2026-05-06 21:20 | 36.07642 | -115.13177 | 2067 ft | 166 kts | 271° |
| 2026-05-06 21:21 | 36.07634 | -115.15246 | 2628 ft | 262 kts | 270° |
| 2026-05-06 21:21 | 36.07630 | -115.17399 | 3413 ft | 239 kts | 271° |
| 2026-05-06 21:21 | 36.07651 | -115.19456 | 4058 ft | 242 kts | 270° |
| 2026-05-06 21:21 | 36.07671 | -115.21574 | 4802 ft | 253 kts | 270° |
| 2026-05-06 21:22 | 36.07481 | -115.23870 | 5650 ft | 277 kts | 255° |
| 2026-05-06 21:22 | 36.06714 | -115.25974 | 6480 ft | 268 kts | 233° |
| 2026-05-06 21:22 | 36.05351 | -115.27573 | 6862 ft | 275 kts | 213° |
| 2026-05-06 21:22 | 36.03663 | -115.28761 | 7069 ft | 293 kts | 209° |
| 2026-05-06 21:23 | 36.01743 | -115.29842 | 7218 ft | 308 kts | 200° |
| 2026-05-06 21:23 | 35.99748 | -115.30616 | 8003 ft | 290 kts | 193° |
| 2026-05-06 21:23 | 35.97835 | -115.31000 | 8749 ft | 269 kts | 186° |
| 2026-05-06 21:23 | 35.95939 | -115.31244 | 9315 ft | 279 kts | 186° |
| 2026-05-06 21:24 | 35.93935 | -115.31474 | 9930 ft | 301 kts | 186° |
| 2026-05-06 21:24 | 35.91784 | -115.31771 | 10699 ft | 333 kts | 187° |
| 2026-05-06 21:24 | 35.89239 | -115.32164 | 11855 ft | 401 kts | 187° |
| 2026-05-06 21:24 | 35.86268 | -115.32746 | 13293 ft | 465 kts | 189° |
| 2026-05-06 21:25 | 35.82840 | -115.33495 | 14358 ft | 532 kts | 189° |
| 2026-05-06 21:25 | 35.79042 | -115.34341 | 15459 ft | 587 kts | 189° |
| 2026-05-06 21:25 | 35.74868 | -115.35284 | 16544 ft | 629 kts | 189° |
| 2026-05-06 21:25 | 35.70465 | -115.36287 | 17462 ft | 650 kts | 189° |
| 2026-05-06 21:26 | 35.66009 | -115.37319 | 18415 ft | 651 kts | 191° |
| 2026-05-06 21:26 | 35.61663 | -115.38859 | 19722 ft | 644 kts | 201° |
| 2026-05-06 21:26 | 35.57701 | -115.41300 | 20951 ft | 645 kts | 212° |
| 2026-05-06 21:26 | 35.54122 | -115.44592 | 22265 ft | 643 kts | 222° |
| 2026-05-06 21:27 | 35.51006 | -115.48553 | 23081 ft | 647 kts | 232° |
| 2026-05-06 21:27 | 35.48313 | -115.53035 | 23467 ft | 655 kts | 235° |
| 2026-05-06 21:27 | 35.45624 | -115.57597 | 23821 ft | 661 kts | 235° |
| 2026-05-06 21:27 | 35.42922 | -115.62193 | 24094 ft | 665 kts | 235° |
| 2026-05-06 21:28 | 35.40239 | -115.66762 | 24104 ft | 673 kts | 235° |
| 2026-05-06 21:28 | 35.37483 | -115.71459 | 24108 ft | 678 kts | 235° |
| 2026-05-06 21:28 | 35.34716 | -115.76170 | 24113 ft | 682 kts | 235° |
| 2026-05-06 21:28 | 35.31933 | -115.80900 | 24100 ft | 685 kts | 235° |
| 2026-05-06 21:29 | 35.29361 | -115.85821 | 23932 ft | 688 kts | 243° |
| 2026-05-06 21:29 | 35.27188 | -115.91070 | 23906 ft | 688 kts | 245° |
| 2026-05-06 21:29 | 35.25050 | -115.96309 | 23965 ft | 688 kts | 245° |
| 2026-05-06 21:29 | 35.22920 | -116.01547 | 24030 ft | 688 kts | 245° |
| 2026-05-06 21:30 | 35.20819 | -116.06725 | 24026 ft | 689 kts | 245° |
| 2026-05-06 21:30 | 35.18700 | -116.11988 | 24010 ft | 689 kts | 245° |
| 2026-05-06 21:30 | 35.16621 | -116.17301 | 23986 ft | 690 kts | 248° |
| 2026-05-06 21:30 | 35.14976 | -116.22804 | 23896 ft | 687 kts | 258° |
| 2026-05-06 21:31 | 35.14008 | -116.28507 | 24050 ft | 683 kts | 261° |
| 2026-05-06 21:31 | 35.13100 | -116.34147 | 24051 ft | 684 kts | 261° |
| 2026-05-06 21:31 | 35.12196 | -116.39728 | 24044 ft | 685 kts | 261° |
| 2026-05-06 21:31 | 35.11242 | -116.45570 | 24049 ft | 686 kts | 261° |
| 2026-05-06 21:32 | 35.10297 | -116.51287 | 24043 ft | 683 kts | 261° |
| 2026-05-06 21:32 | 35.08464 | -116.62038 | 22539 ft | 628 kts | 260° |
| 2026-05-06 21:32 | 35.07550 | -116.67257 | 21728 ft | 628 kts | 260° |
| 2026-05-06 21:33 | 35.06635 | -116.72468 | 20955 ft | 628 kts | 260° |
| 2026-05-06 21:33 | 35.05729 | -116.77618 | 20216 ft | 629 kts | 259° |
| 2026-05-06 21:33 | 35.04802 | -116.82856 | 19488 ft | 630 kts | 259° |
| 2026-05-06 21:33 | 35.03881 | -116.88027 | 18790 ft | 630 kts | 259° |
| 2026-05-06 21:34 | 35.02954 | -116.93183 | 18073 ft | 630 kts | 259° |
| 2026-05-06 21:34 | 35.01990 | -116.98472 | 17293 ft | 630 kts | 259° |
| 2026-05-06 21:34 | 35.01037 | -117.03647 | 16550 ft | 630 kts | 259° |
| 2026-05-06 21:34 | 35.00065 | -117.08872 | 15818 ft | 630 kts | 258° |
| 2026-05-06 21:35 | 34.99135 | -117.14087 | 15102 ft | 629 kts | 261° |
| 2026-05-06 21:35 | 34.98356 | -117.19325 | 14651 ft | 625 kts | 261° |
| 2026-05-06 21:35 | 34.97582 | -117.24525 | 14396 ft | 621 kts | 261° |
| 2026-05-06 21:35 | 34.96802 | -117.29699 | 14136 ft | 618 kts | 261° |
| 2026-05-06 21:36 | 34.96011 | -117.34848 | 13885 ft | 617 kts | 261° |
| 2026-05-06 21:36 | 34.95241 | -117.39904 | 13977 ft | 610 kts | 261° |
| 2026-05-06 21:36 | 34.94513 | -117.44811 | 13923 ft | 549 kts | 261° |
| 2026-05-06 21:36 | 34.93875 | -117.49146 | 13872 ft | 502 kts | 261° |
| 2026-05-06 21:37 | 34.93282 | -117.53161 | 14101 ft | 459 kts | 262° |
| 2026-05-06 21:37 | 34.92739 | -117.56846 | 14205 ft | 428 kts | 262° |
| 2026-05-06 21:37 | 34.92240 | -117.60334 | 14139 ft | 407 kts | 262° |
| 2026-05-06 21:37 | 34.91764 | -117.63684 | 13845 ft | 396 kts | 262° |
| 2026-05-06 21:38 | 34.91294 | -117.67011 | 12987 ft | 400 kts | 262° |
| 2026-05-06 21:38 | 34.90827 | -117.70317 | 12227 ft | 401 kts | 263° |
| 2026-05-06 21:38 | 34.90354 | -117.73671 | 11483 ft | 401 kts | 263° |
| 2026-05-06 21:38 | 34.89881 | -117.77026 | 10764 ft | 401 kts | 263° |
| 2026-05-06 21:39 | 34.89411 | -117.80372 | 10075 ft | 401 kts | 263° |
| 2026-05-06 21:39 | 34.88944 | -117.83712 | 9338 ft | 400 kts | 262° |
| 2026-05-06 21:39 | 34.88474 | -117.87047 | 8614 ft | 398 kts | 262° |
| 2026-05-06 21:39 | 34.88014 | -117.90362 | 8056 ft | 391 kts | 266° |
| 2026-05-06 21:40 | 34.88524 | -117.93444 | 7662 ft | 371 kts | 303° |
| 2026-05-06 21:40 | 34.90331 | -117.95531 | 7364 ft | 354 kts | 336° |
| 2026-05-06 21:40 | 34.92666 | -117.95901 | 7139 ft | 337 kts | 11° |
| 2026-05-06 21:40 | 34.94952 | -117.95340 | 6717 ft | 332 kts | 12° |
| 2026-05-06 21:41 | 34.97150 | -117.94746 | 6412 ft | 312 kts | 13° |
| 2026-05-06 21:41 | 34.99204 | -117.94164 | 6094 ft | 294 kts | 13° |
| 2026-05-06 21:41 | 35.01158 | -117.93621 | 5705 ft | 281 kts | 13° |
| 2026-05-06 21:41 | 35.03009 | -117.93096 | 5320 ft | 274 kts | 13° |
| 2026-05-06 21:42 | 35.04829 | -117.92574 | 4960 ft | 260 kts | 13° |
| 2026-05-06 21:42 | 35.06562 | -117.92076 | 4928 ft | 251 kts | 13° |
| 2026-05-06 21:42 | 35.08283 | -117.91588 | 4967 ft | 259 kts | 13° |
| 2026-05-06 21:42 | 35.10078 | -117.91079 | 4986 ft | 270 kts | 13° |
| 2026-05-06 21:43 | 35.11940 | -117.90544 | 5028 ft | 276 kts | 13° |
| 2026-05-06 21:43 | 35.13738 | -117.89714 | 4938 ft | 281 kts | 39° |
| 2026-05-06 21:43 | 35.14864 | -117.87815 | 4826 ft | 285 kts | 72° |
| 2026-05-06 21:43 | 35.15021 | -117.85433 | 4627 ft | 278 kts | 102° |
| 2026-05-06 21:44 | 35.14414 | -117.83260 | 4604 ft | 260 kts | 112° |
| 2026-05-06 21:44 | 35.13738 | -117.81247 | 4525 ft | 253 kts | 112° |
| 2026-05-06 21:44 | 35.13066 | -117.79297 | 4470 ft | 249 kts | 113° |
| 2026-05-06 21:44 | 35.12385 | -117.77354 | 4459 ft | 251 kts | 113° |
| 2026-05-06 21:45 | 35.11679 | -117.75373 | 4477 ft | 257 kts | 114° |
| 2026-05-06 21:45 | 35.10950 | -117.73349 | 4485 ft | 264 kts | 114° |
| 2026-05-06 21:45 | 35.10195 | -117.71264 | 4494 ft | 272 kts | 114° |
| 2026-05-06 21:45 | 35.09423 | -117.69153 | 4531 ft | 278 kts | 114° |
| 2026-05-06 21:46 | 35.08616 | -117.66973 | 4519 ft | 286 kts | 114° |
| 2026-05-06 21:46 | 35.07790 | -117.64764 | 4491 ft | 277 kts | 115° |
| 2026-05-06 21:46 | 35.07009 | -117.62689 | 4432 ft | 260 kts | 115° |
| 2026-05-06 21:46 | 35.06261 | -117.60736 | 4409 ft | 247 kts | 115° |
| 2026-05-06 21:47 | 35.05539 | -117.58896 | 4381 ft | 233 kts | 116° |
| 2026-05-06 21:47 | 35.04847 | -117.57186 | 4381 ft | 223 kts | 116° |
| 2026-05-06 21:47 | 35.04105 | -117.55407 | 4430 ft | 248 kts | 117° |
| 2026-05-06 21:47 | 35.03264 | -117.53428 | 4489 ft | 277 kts | 117° |
| 2026-05-06 21:48 | 35.02324 | -117.51242 | 4541 ft | 297 kts | 117° |
| 2026-05-06 21:48 | 35.01382 | -117.49056 | 4533 ft | 293 kts | 117° |
| 2026-05-06 21:48 | 35.00421 | -117.46857 | 4433 ft | 292 kts | 118° |
| 2026-05-06 21:48 | 34.99442 | -117.44705 | 4413 ft | 288 kts | 119° |
| 2026-05-06 21:49 | 34.98331 | -117.42702 | 4338 ft | 284 kts | 144° |
| 2026-05-06 21:49 | 34.96529 | -117.42088 | 4276 ft | 274 kts | 189° |
| 2026-05-06 21:49 | 34.95099 | -117.43294 | 4253 ft | 251 kts | 249° |
| 2026-05-06 21:49 | 34.94915 | -117.45315 | 4296 ft | 235 kts | 272° |
| 2026-05-06 21:50 | 34.94973 | -117.47276 | 4438 ft | 227 kts | 274° |
| 2026-05-06 21:50 | 34.95064 | -117.49276 | 4468 ft | 250 kts | 274° |
| 2026-05-06 21:50 | 34.95195 | -117.51531 | 4518 ft | 275 kts | 275° |
| 2026-05-06 21:50 | 34.95350 | -117.53841 | 4620 ft | 275 kts | 275° |
| 2026-05-06 21:51 | 34.95465 | -117.56063 | 4629 ft | 251 kts | 269° |
| 2026-05-06 21:51 | 34.95335 | -117.58088 | 4772 ft | 243 kts | 265° |
| 2026-05-06 21:51 | 34.95182 | -117.60275 | 4970 ft | 274 kts | 265° |
| 2026-05-06 21:51 | 34.94998 | -117.62738 | 4956 ft | 295 kts | 265° |
| 2026-05-06 21:52 | 34.94793 | -117.65139 | 4859 ft | 276 kts | 264° |
| 2026-05-06 21:52 | 34.94564 | -117.67462 | 4723 ft | 275 kts | 263° |
| 2026-05-06 21:52 | 34.94311 | -117.69761 | 4574 ft | 272 kts | 262° |
| 2026-05-06 21:52 | 34.94046 | -117.72039 | 4424 ft | 270 kts | 262° |
| 2026-05-06 21:53 | 34.93780 | -117.74273 | 4266 ft | 269 kts | 262° |
| 2026-05-06 21:53 | 34.93623 | -117.76481 | 4067 ft | 237 kts | 269° |
| 2026-05-06 21:53 | 34.93602 | -117.78268 | 3749 ft | 198 kts | 270° |
| 2026-05-06 21:53 | 34.93566 | -117.80057 | 3537 ft | 228 kts | 265° |
| 2026-05-06 21:54 | 34.93354 | -117.82092 | 3273 ft | 247 kts | 259° |
| 2026-05-06 21:54 | 34.92891 | -117.83807 | 2790 ft | 183 kts | 239° |
| 2026-05-06 21:54 | 34.92185 | -117.85129 | 2480 ft | 197 kts | 238° |
| 2026-05-06 21:54 | 34.91483 | -117.86535 | 2292 ft | 176 kts | 240° |
| 2026-05-06 21:55 | 34.90979 | -117.87531 | 2303 ft | 85 kts | 236° |
| 2026-05-06 21:55 | 34.90722 | -117.88018 | 2298 ft | 65 kts | 237° |
| 2026-05-06 21:55 | 34.90562 | -117.88350 | 2297 ft | 18 kts | 270° |
| 2026-05-06 21:55 | 34.90646 | -117.88458 | 2302 ft | 20 kts | 329° |
| 2026-05-06 21:56 | 34.90764 | -117.88547 | 2310 ft | 20 kts | 328° |
| 2026-05-06 21:56 | 34.90887 | -117.88639 | 2302 ft | 21 kts | 328° |
| 2026-05-06 21:56 | 34.91016 | -117.88736 | 2304 ft | 22 kts | 328° |
| 2026-05-06 21:56 | 34.91154 | -117.88840 | 2307 ft | 24 kts | 328° |
| 2026-05-06 21:57 | 34.91301 | -117.88951 | 2311 ft | 26 kts | 328° |
| 2026-05-06 21:57 | 34.91460 | -117.89071 | 2310 ft | 28 kts | 328° |
| 2026-05-06 21:57 | 34.91583 | -117.89164 | 2303 ft | 9 kts | 327° |
| 2026-05-06 21:57 | 34.91639 | -117.89139 | 2305 ft | 11 kts | 47° |
| 2026-05-06 21:58 | 34.91725 | -117.89079 | 2302 ft | 25 kts | 330° |
| 2026-05-06 21:58 | 34.91829 | -117.89040 | 2311 ft | 18 kts | 59° |
| 2026-05-06 21:58 | 34.91872 | -117.89041 | 2301 ft | 0 kts | 328° |